METAR Data

Data at: 0652 UTC 28 Sep 2022

METAR for:KMLT (Millinocket Muni, ME, US)
Text:KMLT 280553Z AUTO 00000KT 10SM CLR 08/08 A2987 RMK AO2 SLP119 T00780078 10128 20078 53008
Temperature: 7.8°C ( 46°F)
Dewpoint: 7.8°C ( 46°F) [RH = 100%]
Pressure (altimeter):29.87 inches Hg (1011.6 mb) [Sea level pressure: 1011.9 mb]
Winds:calm
Visibility:10 or more sm (16+ km)
Ceiling:at least 12,000 feet AGL
Clouds:sky clear below 12,000 feet AGL
QC Flag:automated observation with no human augmentation